sensor_id;sensor_type;location;lat;lon;timestamp;temperature;humidity
55795;DHT22;41716;51.910;4.430;2023-05-10T00:00:22;12.50;99.90
55795;DHT22;41716;51.910;4.430;2023-05-10T00:05:26;12.30;99.90
55795;DHT22;41716;51.910;4.430;2023-05-10T00:10:32;12.30;99.90
55795;DHT22;41716;51.910;4.430;2023-05-10T00:15:39;12.10;99.90
55795;DHT22;41716;51.910;4.430;2023-05-10T00:20:45;13.80;99.90
55795;DHT22;41716;51.910;4.430;2023-05-10T00:25:51;14.00;99.90
55795;DHT22;41716;51.910;4.430;2023-05-10T00:31:01;14.50;99.90
55795;DHT22;41716;51.910;4.430;2023-05-10T00:36:17;12.90;99.90
55795;DHT22;41716;51.910;4.430;2023-05-10T00:41:20;12.40;99.90
55795;DHT22;41716;51.910;4.430;2023-05-10T00:46:23;13.90;99.90
55795;DHT22;41716;51.910;4.430;2023-05-10T00:51:34;13.40;99.90
55795;DHT22;41716;51.910;4.430;2023-05-10T00:56:39;12.10;99.90
55795;DHT22;41716;51.910;4.430;2023-05-10T01:01:54;13.80;99.90
55795;DHT22;41716;51.910;4.430;2023-05-10T01:07:20;14.20;99.90
55795;DHT22;41716;51.910;4.430;2023-05-10T01:12:26;13.70;99.90
55795;DHT22;41716;51.910;4.430;2023-05-10T01:17:40;12.30;99.90
55795;DHT22;41716;51.910;4.430;2023-05-10T01:29:02;12.20;99.90
55795;DHT22;41716;51.910;4.430;2023-05-10T01:34:20;14.50;99.90
55795;DHT22;41716;51.910;4.430;2023-05-10T01:39:32;13.00;99.90
55795;DHT22;41716;51.910;4.430;2023-05-10T01:44:42;13.10;99.90
55795;DHT22;41716;51.910;4.430;2023-05-10T01:49:54;13.30;99.90
55795;DHT22;41716;51.910;4.430;2023-05-10T01:55:06;12.60;99.90
55795;DHT22;41716;51.910;4.430;2023-05-10T02:00:13;12.90;99.90
55795;DHT22;41716;51.910;4.430;2023-05-10T02:05:22;13.80;99.90
55795;DHT22;41716;51.910;4.430;2023-05-10T02:10:27;14.60;99.90
55795;DHT22;41716;51.910;4.430;2023-05-10T02:15:31;14.70;99.90
55795;DHT22;41716;51.910;4.430;2023-05-10T02:20:39;12.70;99.90
55795;DHT22;41716;51.910;4.430;2023-05-10T02:25:59;14.30;99.90
55795;DHT22;41716;51.910;4.430;2023-05-10T02:31:17;13.20;99.90
55795;DHT22;41716;51.910;4.430;2023-05-10T02:36:25;14.60;99.90
55795;DHT22;41716;51.910;4.430;2023-05-10T02:41:35;13.20;99.90
55795;DHT22;41716;51.910;4.430;2023-05-10T02:46:42;14.60;99.90
55795;DHT22;41716;51.910;4.430;2023-05-10T02:51:56;13.90;99.90
55795;DHT22;41716;51.910;4.430;2023-05-10T02:57:09;14.40;99.90
55795;DHT22;41716;51.910;4.430;2023-05-10T03:02:18;14.70;99.90
55795;DHT22;41716;51.910;4.430;2023-05-10T03:07:57;14.10;99.90
55795;DHT22;41716;51.910;4.430;2023-05-10T03:13:24;12.60;99.90
55795;DHT22;41716;51.910;4.430;2023-05-10T03:18:48;12.60;99.90
55795;DHT22;41716;51.910;4.430;2023-05-10T03:24:09;13.50;99.90
55795;DHT22;41716;51.910;4.430;2023-05-10T03:29:22;14.20;99.90
55795;DHT22;41716;51.910;4.430;2023-05-10T03:34:35;14.30;99.90
55795;DHT22;41716;51.910;4.430;2023-05-10T03:39:46;14.50;99.90
55795;DHT22;41716;51.910;4.430;2023-05-10T03:45:00;14.60;99.90
55795;DHT22;41716;51.910;4.430;2023-05-10T03:50:08;14.50;99.90
55795;DHT22;41716;51.910;4.430;2023-05-10T03:55:15;12.50;99.90
55795;DHT22;41716;51.910;4.430;2023-05-10T04:00:23;13.40;99.90
55795;DHT22;41716;51.910;4.430;2023-05-10T04:05:34;12.80;99.90
55795;DHT22;41716;51.910;4.430;2023-05-10T04:10:43;12.90;99.90
55795;DHT22;41716;51.910;4.430;2023-05-10T04:15:49;14.60;99.90
55795;DHT22;41716;51.910;4.430;2023-05-10T04:20:53;14.70;99.90
55795;DHT22;41716;51.910;4.430;2023-05-10T04:26:06;13.10;99.90
55795;DHT22;41716;51.910;4.430;2023-05-10T04:31:14;12.20;99.90
55795;DHT22;41716;51.910;4.430;2023-05-10T04:36:36;14.70;99.90
55795;DHT22;41716;51.910;4.430;2023-05-10T04:41:51;13.70;99.90
55795;DHT22;41716;51.910;4.430;2023-05-10T04:52:15;14.30;99.90
55795;DHT22;41716;51.910;4.430;2023-05-10T04:57:36;13.80;99.90
55795;DHT22;41716;51.910;4.430;2023-05-10T05:02:55;13.20;99.90
55795;DHT22;41716;51.910;4.430;2023-05-10T05:08:08;14.10;99.90
55795;DHT22;41716;51.910;4.430;2023-05-10T05:13:27;12.90;99.90
55795;DHT22;41716;51.910;4.430;2023-05-10T05:18:44;13.60;99.90
55795;DHT22;41716;51.910;4.430;2023-05-10T05:23:48;13.90;99.90
55795;DHT22;41716;51.910;4.430;2023-05-10T05:28:56;13.70;99.90
55795;DHT22;41716;51.910;4.430;2023-05-10T05:34:00;13.20;99.90
55795;DHT22;41716;51.910;4.430;2023-05-10T05:39:17;14.20;99.90
55795;DHT22;41716;51.910;4.430;2023-05-10T05:44:22;13.40;99.90
55795;DHT22;41716;51.910;4.430;2023-05-10T05:49:37;12.30;99.90
55795;DHT22;41716;51.910;4.430;2023-05-10T05:54:43;14.00;99.90
55795;DHT22;41716;51.910;4.430;2023-05-10T06:00:04;13.00;99.90
55795;DHT22;41716;51.910;4.430;2023-05-10T06:05:31;14.50;99.90
55795;DHT22;41716;51.910;4.430;2023-05-10T06:10:38;14.60;99.90
55795;DHT22;41716;51.910;4.430;2023-05-10T06:15:54;13.10;99.90
55795;DHT22;41716;51.910;4.430;2023-05-10T06:21:00;12.60;99.90
55795;DHT22;41716;51.910;4.430;2023-05-10T06:26:19;14.20;99.90
55795;DHT22;41716;51.910;4.430;2023-05-10T06:31:27;13.50;99.90
55795;DHT22;41716;51.910;4.430;2023-05-10T06:36:33;13.60;99.90
55795;DHT22;41716;51.910;4.430;2023-05-10T06:41:44;12.90;99.90
55795;DHT22;41716;51.910;4.430;2023-05-10T06:46:55;14.60;99.90
55795;DHT22;41716;51.910;4.430;2023-05-10T06:52:20;13.60;99.90
55795;DHT22;41716;51.910;4.430;2023-05-10T06:57:45;13.40;99.90
55795;DHT22;41716;51.910;4.430;2023-05-10T07:02:56;14.20;99.90
55795;DHT22;41716;51.910;4.430;2023-05-10T07:08:07;13.70;99.90
55795;DHT22;41716;51.910;4.430;2023-05-10T07:13:09;14.60;99.90
55795;DHT22;41716;51.910;4.430;2023-05-10T07:18:18;14.10;99.90
55795;DHT22;41716;51.910;4.430;2023-05-10T07:23:29;13.80;99.90
55795;DHT22;41716;51.910;4.430;2023-05-10T07:28:31;14.80;99.90
55795;DHT22;41716;51.910;4.430;2023-05-10T07:33:55;13.90;99.90
55795;DHT22;41716;51.910;4.430;2023-05-10T07:39:01;14.40;99.90
55795;DHT22;41716;51.910;4.430;2023-05-10T07:44:04;14.30;99.90
55795;DHT22;41716;51.910;4.430;2023-05-10T07:49:13;15.20;99.90
55795;DHT22;41716;51.910;4.430;2023-05-10T07:54:24;15.20;99.90
55795;DHT22;41716;51.910;4.430;2023-05-10T07:59:28;15.10;99.90
55795;DHT22;41716;51.910;4.430;2023-05-10T08:04:43;14.30;99.90
55795;DHT22;41716;51.910;4.430;2023-05-10T08:09:48;15.30;99.90
55795;DHT22;41716;51.910;4.430;2023-05-10T08:14:58;14.90;99.90
55795;DHT22;41716;51.910;4.430;2023-05-10T08:20:02;14.40;99.90
55795;DHT22;41716;51.910;4.430;2023-05-10T08:25:09;15.50;99.90
55795;DHT22;41716;51.910;4.430;2023-05-10T08:30:21;15.10;99.90
55795;DHT22;41716;51.910;4.430;2023-05-10T08:35:34;14.90;99.90
55795;DHT22;41716;51.910;4.430;2023-05-10T08:40:37;15.00;99.90
55795;DHT22;41716;51.910;4.430;2023-05-10T08:45:53;14.70;99.90
55795;DHT22;41716;51.910;4.430;2023-05-10T08:51:03;14.60;99.90
55795;DHT22;41716;51.910;4.430;2023-05-10T08:56:11;15.20;99.90
55795;DHT22;41716;51.910;4.430;2023-05-10T09:01:25;14.50;99.90
55795;DHT22;41716;51.910;4.430;2023-05-10T09:06:29;14.60;99.90
55795;DHT22;41716;51.910;4.430;2023-05-10T09:11:32;14.60;99.90
55795;DHT22;41716;51.910;4.430;2023-05-10T09:16:45;15.40;99.90
55795;DHT22;41716;51.910;4.430;2023-05-10T09:21:52;15.50;99.90
55795;DHT22;41716;51.910;4.430;2023-05-10T09:27:01;16.00;99.90
55795;DHT22;41716;51.910;4.430;2023-05-10T09:32:06;15.40;99.90
55795;DHT22;41716;51.910;4.430;2023-05-10T09:37:14;15.50;99.90
55795;DHT22;41716;51.910;4.430;2023-05-10T09:42:18;15.80;99.90
55795;DHT22;41716;51.910;4.430;2023-05-10T09:47:26;15.10;99.90
55795;DHT22;41716;51.910;4.430;2023-05-10T09:58:17;15.80;99.90
55795;DHT22;41716;51.910;4.430;2023-05-10T10:03:31;15.70;99.90
55795;DHT22;41716;51.910;4.430;2023-05-10T10:08:39;15.10;99.90
55795;DHT22;41716;51.910;4.430;2023-05-10T10:13:43;15.70;99.90
55795;DHT22;41716;51.910;4.430;2023-05-10T10:18:47;15.80;99.90
55795;DHT22;41716;51.910;4.430;2023-05-10T10:24:06;15.30;99.90
55795;DHT22;41716;51.910;4.430;2023-05-10T10:29:21;15.50;99.90
55795;DHT22;41716;51.910;4.430;2023-05-10T10:34:34;16.00;99.90
55795;DHT22;41716;51.910;4.430;2023-05-10T10:39:43;15.40;99.90
55795;DHT22;41716;51.910;4.430;2023-05-10T10:44:44;16.30;99.90
55795;DHT22;41716;51.910;4.430;2023-05-10T10:50:20;16.70;99.90
55795;DHT22;41716;51.910;4.430;2023-05-10T10:55:32;16.90;99.90
55795;DHT22;41716;51.910;4.430;2023-05-10T11:00:50;17.30;99.90
55795;DHT22;41716;51.910;4.430;2023-05-10T11:06:31;18.00;99.90
55795;DHT22;41716;51.910;4.430;2023-05-10T11:11:48;18.90;99.90
55795;DHT22;41716;51.910;4.430;2023-05-10T11:16:56;18.60;99.90
55795;DHT22;41716;51.910;4.430;2023-05-10T11:22:15;18.30;99.90
55795;DHT22;41716;51.910;4.430;2023-05-10T11:27:24;17.70;99.90
55795;DHT22;41716;51.910;4.430;2023-05-10T11:32:29;17.90;99.90
55795;DHT22;41716;51.910;4.430;2023-05-10T11:37:31;17.90;99.90
55795;DHT22;41716;51.910;4.430;2023-05-10T11:42:36;17.60;99.90
55795;DHT22;41716;51.910;4.430;2023-05-10T11:47:38;17.30;99.90
55795;DHT22;41716;51.910;4.430;2023-05-10T11:52:42;17.20;99.90
55795;DHT22;41716;51.910;4.430;2023-05-10T11:57:45;17.10;99.90
55795;DHT22;41716;51.910;4.430;2023-05-10T12:02:48;17.40;99.90
55795;DHT22;41716;51.910;4.430;2023-05-10T12:07:50;17.20;99.90
55795;DHT22;41716;51.910;4.430;2023-05-10T12:12:53;17.20;99.90
55795;DHT22;41716;51.910;4.430;2023-05-10T12:17:56;17.30;99.90
55795;DHT22;41716;51.910;4.430;2023-05-10T12:22:58;17.70;99.90
55795;DHT22;41716;51.910;4.430;2023-05-10T12:28:05;17.70;99.90
55795;DHT22;41716;51.910;4.430;2023-05-10T12:33:09;18.00;99.90
55795;DHT22;41716;51.910;4.430;2023-05-10T12:38:25;18.30;99.90
55795;DHT22;41716;51.910;4.430;2023-05-10T12:43:28;18.30;99.90
55795;DHT22;41716;51.910;4.430;2023-05-10T12:48:30;18.40;99.90
55795;DHT22;41716;51.910;4.430;2023-05-10T12:53:34;18.40;99.90
55795;DHT22;41716;51.910;4.430;2023-05-10T12:58:38;18.50;99.90
55795;DHT22;41716;51.910;4.430;2023-05-10T13:03:40;18.60;99.90
55795;DHT22;41716;51.910;4.430;2023-05-10T13:08:43;18.20;99.90
55795;DHT22;41716;51.910;4.430;2023-05-10T13:13:46;18.30;99.90
55795;DHT22;41716;51.910;4.430;2023-05-10T13:18:48;18.00;99.90
55795;DHT22;41716;51.910;4.430;2023-05-10T13:23:50;17.80;99.90
55795;DHT22;41716;51.910;4.430;2023-05-10T13:28:53;17.70;99.90
55795;DHT22;41716;51.910;4.430;2023-05-10T13:33:55;17.80;99.90
55795;DHT22;41716;51.910;4.430;2023-05-10T13:38:57;17.80;99.90
55795;DHT22;41716;51.910;4.430;2023-05-10T13:44:00;17.90;99.90
55795;DHT22;41716;51.910;4.430;2023-05-10T13:49:02;17.80;99.90
55795;DHT22;41716;51.910;4.430;2023-05-10T13:54:03;18.00;99.90
55795;DHT22;41716;51.910;4.430;2023-05-10T13:59:07;18.00;99.90
55795;DHT22;41716;51.910;4.430;2023-05-10T14:04:09;18.10;99.90
55795;DHT22;41716;51.910;4.430;2023-05-10T14:09:11;18.40;99.90
55795;DHT22;41716;51.910;4.430;2023-05-10T14:14:14;18.20;99.90
55795;DHT22;41716;51.910;4.430;2023-05-10T14:19:16;18.40;99.90
55795;DHT22;41716;51.910;4.430;2023-05-10T14:24:18;18.30;99.90
55795;DHT22;41716;51.910;4.430;2023-05-10T14:29:22;18.10;99.90
55795;DHT22;41716;51.910;4.430;2023-05-10T14:34:23;17.90;99.90
55795;DHT22;41716;51.910;4.430;2023-05-10T14:39:25;17.80;99.90
55795;DHT22;41716;51.910;4.430;2023-05-10T14:44:31;18.10;99.90
55795;DHT22;41716;51.910;4.430;2023-05-10T14:49:32;18.20;99.90
55795;DHT22;41716;51.910;4.430;2023-05-10T14:54:34;18.10;99.90
55795;DHT22;41716;51.910;4.430;2023-05-10T14:59:37;17.50;99.90
55795;DHT22;41716;51.910;4.430;2023-05-10T15:04:39;17.70;99.90
55795;DHT22;41716;51.910;4.430;2023-05-10T15:09:41;17.80;99.90
55795;DHT22;41716;51.910;4.430;2023-05-10T15:14:44;17.70;99.90
55795;DHT22;41716;51.910;4.430;2023-05-10T15:19:46;17.80;99.90
55795;DHT22;41716;51.910;4.430;2023-05-10T15:24:49;17.80;99.90
55795;DHT22;41716;51.910;4.430;2023-05-10T15:29:52;17.80;99.90
55795;DHT22;41716;51.910;4.430;2023-05-10T15:34:54;17.80;99.90
55795;DHT22;41716;51.910;4.430;2023-05-10T15:39:56;17.80;99.90
55795;DHT22;41716;51.910;4.430;2023-05-10T15:45:05;17.50;99.90
55795;DHT22;41716;51.910;4.430;2023-05-10T15:50:09;17.40;99.90
55795;DHT22;41716;51.910;4.430;2023-05-10T15:55:10;17.40;99.90
55795;DHT22;41716;51.910;4.430;2023-05-10T16:00:15;17.20;99.90
55795;DHT22;41716;51.910;4.430;2023-05-10T16:05:18;17.20;99.90
55795;DHT22;41716;51.910;4.430;2023-05-10T16:10:19;17.10;99.90
55795;DHT22;41716;51.910;4.430;2023-05-10T16:15:22;17.10;99.90
55795;DHT22;41716;51.910;4.430;2023-05-10T16:20:24;17.00;99.90
55795;DHT22;41716;51.910;4.430;2023-05-10T16:25:27;16.80;99.90
55795;DHT22;41716;51.910;4.430;2023-05-10T16:30:30;16.80;99.90
55795;DHT22;41716;51.910;4.430;2023-05-10T16:35:31;16.90;99.90
55795;DHT22;41716;51.910;4.430;2023-05-10T16:40:33;16.60;99.90
55795;DHT22;41716;51.910;4.430;2023-05-10T16:45:36;16.70;99.90
55795;DHT22;41716;51.910;4.430;2023-05-10T16:50:42;16.60;99.90
55795;DHT22;41716;51.910;4.430;2023-05-10T16:55:44;16.40;99.90
55795;DHT22;41716;51.910;4.430;2023-05-10T17:00:47;16.30;99.90
55795;DHT22;41716;51.910;4.430;2023-05-10T17:05:48;16.30;99.90
55795;DHT22;41716;51.910;4.430;2023-05-10T17:10:50;16.10;99.90
55795;DHT22;41716;51.910;4.430;2023-05-10T17:15:53;16.30;99.90
55795;DHT22;41716;51.910;4.430;2023-05-10T17:20:55;16.10;99.90
55795;DHT22;41716;51.910;4.430;2023-05-10T17:25:57;16.40;99.90
55795;DHT22;41716;51.910;4.430;2023-05-10T17:31:01;16.20;99.90
55795;DHT22;41716;51.910;4.430;2023-05-10T17:36:02;16.20;99.90
55795;DHT22;41716;51.910;4.430;2023-05-10T17:41:04;15.90;99.90
55795;DHT22;41716;51.910;4.430;2023-05-10T17:46:08;15.80;99.90
55795;DHT22;41716;51.910;4.430;2023-05-10T17:51:09;15.90;99.90
55795;DHT22;41716;51.910;4.430;2023-05-10T17:56:12;15.80;99.90
55795;DHT22;41716;51.910;4.430;2023-05-10T18:01:15;16.30;99.90
55795;DHT22;41716;51.910;4.430;2023-05-10T18:06:17;16.20;99.90
55795;DHT22;41716;51.910;4.430;2023-05-10T18:11:18;15.80;99.90
55795;DHT22;41716;51.910;4.430;2023-05-10T18:16:22;15.70;99.90
55795;DHT22;41716;51.910;4.430;2023-05-10T18:21:24;15.60;99.90
55795;DHT22;41716;51.910;4.430;2023-05-10T18:26:25;15.70;99.90
55795;DHT22;41716;51.910;4.430;2023-05-10T18:31:29;15.80;99.90
55795;DHT22;41716;51.910;4.430;2023-05-10T18:36:30;15.10;99.90
55795;DHT22;41716;51.910;4.430;2023-05-10T18:41:32;15.20;99.90
55795;DHT22;41716;51.910;4.430;2023-05-10T18:46:35;15.30;99.90
55795;DHT22;41716;51.910;4.430;2023-05-10T18:51:37;14.90;99.90
55795;DHT22;41716;51.910;4.430;2023-05-10T18:56:39;15.00;99.90
55795;DHT22;41716;51.910;4.430;2023-05-10T19:01:45;14.60;99.90
55795;DHT22;41716;51.910;4.430;2023-05-10T19:06:47;14.90;99.90
55795;DHT22;41716;51.910;4.430;2023-05-10T19:11:50;14.80;99.90
55795;DHT22;41716;51.910;4.430;2023-05-10T19:16:53;14.80;99.90
55795;DHT22;41716;51.910;4.430;2023-05-10T19:21:55;14.90;99.90
55795;DHT22;41716;51.910;4.430;2023-05-10T19:26:57;15.40;99.90
55795;DHT22;41716;51.910;4.430;2023-05-10T19:32:00;14.70;99.90
55795;DHT22;41716;51.910;4.430;2023-05-10T19:37:01;15.30;99.90
55795;DHT22;41716;51.910;4.430;2023-05-10T19:42:03;15.50;99.90
55795;DHT22;41716;51.910;4.430;2023-05-10T19:47:07;14.70;99.90
55795;DHT22;41716;51.910;4.430;2023-05-10T19:52:09;14.40;99.90
55795;DHT22;41716;51.910;4.430;2023-05-10T19:57:11;14.80;99.90
55795;DHT22;41716;51.910;4.430;2023-05-10T20:02:14;14.60;99.90
55795;DHT22;41716;51.910;4.430;2023-05-10T20:07:16;15.10;99.90
55795;DHT22;41716;51.910;4.430;2023-05-10T20:12:18;15.40;99.90
55795;DHT22;41716;51.910;4.430;2023-05-10T20:17:21;15.30;99.90
55795;DHT22;41716;51.910;4.430;2023-05-10T20:22:22;14.30;99.90
55795;DHT22;41716;51.910;4.430;2023-05-10T20:27:24;15.20;99.90
55795;DHT22;41716;51.910;4.430;2023-05-10T20:32:27;14.30;99.90
55795;DHT22;41716;51.910;4.430;2023-05-10T20:37:29;15.10;99.90
55795;DHT22;41716;51.910;4.430;2023-05-10T20:42:31;14.90;99.90
55795;DHT22;41716;51.910;4.430;2023-05-10T20:47:34;14.10;99.90
55795;DHT22;41716;51.910;4.430;2023-05-10T20:52:36;14.90;99.90
55795;DHT22;41716;51.910;4.430;2023-05-10T20:57:38;14.10;99.90
55795;DHT22;41716;51.910;4.430;2023-05-10T21:02:43;14.30;99.90
55795;DHT22;41716;51.910;4.430;2023-05-10T21:07:45;15.10;99.90
55795;DHT22;41716;51.910;4.430;2023-05-10T21:12:48;14.90;99.90
55795;DHT22;41716;51.910;4.430;2023-05-10T21:17:51;15.00;99.90
55795;DHT22;41716;51.910;4.430;2023-05-10T21:22:53;14.00;99.90
55795;DHT22;41716;51.910;4.430;2023-05-10T21:27:55;14.80;99.90
55795;DHT22;41716;51.910;4.430;2023-05-10T21:32:58;14.90;99.90
55795;DHT22;41716;51.910;4.430;2023-05-10T21:38:01;14.90;99.90
55795;DHT22;41716;51.910;4.430;2023-05-10T21:43:03;15.00;99.90
55795;DHT22;41716;51.910;4.430;2023-05-10T21:48:06;14.30;99.90
55795;DHT22;41716;51.910;4.430;2023-05-10T21:53:07;14.70;99.90
55795;DHT22;41716;51.910;4.430;2023-05-10T21:58:09;14.10;99.90
55795;DHT22;41716;51.910;4.430;2023-05-10T22:03:12;15.00;99.90
55795;DHT22;41716;51.910;4.430;2023-05-10T22:08:14;15.00;99.90
55795;DHT22;41716;51.910;4.430;2023-05-10T22:13:16;13.60;99.90
55795;DHT22;41716;51.910;4.430;2023-05-10T22:18:19;14.10;99.90
55795;DHT22;41716;51.910;4.430;2023-05-10T22:23:21;13.70;99.90
55795;DHT22;41716;51.910;4.430;2023-05-10T22:28:22;14.80;99.90
55795;DHT22;41716;51.910;4.430;2023-05-10T22:33:26;14.30;99.90
55795;DHT22;41716;51.910;4.430;2023-05-10T22:38:27;14.00;99.90
55795;DHT22;41716;51.910;4.430;2023-05-10T22:43:29;13.90;99.90
55795;DHT22;41716;51.910;4.430;2023-05-10T22:48:33;13.30;99.90
55795;DHT22;41716;51.910;4.430;2023-05-10T22:53:36;13.30;99.90
55795;DHT22;41716;51.910;4.430;2023-05-10T22:58:37;15.00;99.90
55795;DHT22;41716;51.910;4.430;2023-05-10T23:03:41;13.70;99.90
55795;DHT22;41716;51.910;4.430;2023-05-10T23:08:42;14.40;99.90
55795;DHT22;41716;51.910;4.430;2023-05-10T23:13:44;13.80;99.90
55795;DHT22;41716;51.910;4.430;2023-05-10T23:18:47;14.20;99.90
55795;DHT22;41716;51.910;4.430;2023-05-10T23:23:49;14.80;99.90
55795;DHT22;41716;51.910;4.430;2023-05-10T23:28:51;15.00;99.90
55795;DHT22;41716;51.910;4.430;2023-05-10T23:33:54;13.90;99.90
55795;DHT22;41716;51.910;4.430;2023-05-10T23:38:56;14.00;99.90
55795;DHT22;41716;51.910;4.430;2023-05-10T23:43:57;14.60;99.90
55795;DHT22;41716;51.910;4.430;2023-05-10T23:49:00;15.00;99.90
55795;DHT22;41716;51.910;4.430;2023-05-10T23:54:02;13.60;99.90
55795;DHT22;41716;51.910;4.430;2023-05-10T23:59:04;14.80;99.90
